Time;durP1;ratioP1;P1;durP2;ratioP2;P2;SDS_P1;SDS_P2;PMS_P1;PMS_P2;Temp;Humidity;BMP_temperature;BMP_pressure;BME280_temperature;BME280_humidity;BME280_pressure;Samples;Min_cycle;Max_cycle;Signal;HPM_P1;HPM_P2
2022/12/13 00:01:45;;;;;;;46.10;24.97;;;-3.00;99.90;;;;;;5075442;28;20478;-59
2022/12/13 00:04:16;;;;;;;48.37;26.10;;;-3.10;99.90;;;;;;5075799;28;20457;-59
2022/12/13 00:06:45;;;;;;;43.67;22.50;;;-3.20;99.90;;;;;;5075683;28;20975;-60
2022/12/13 00:09:15;;;;;;;55.50;27.17;;;-3.00;99.90;;;;;;5076366;28;20461;-60
2022/12/13 00:11:43;;;;;;;51.80;26.27;;;-3.20;99.90;;;;;;5076040;28;20477;-59
2022/12/13 00:14:12;;;;;;;44.00;24.17;;;-3.20;99.90;;;;;;5076162;28;20988;-60
2022/12/13 00:16:44;;;;;;;47.33;25.57;;;-3.20;99.90;;;;;;5075719;28;20496;-59
2022/12/13 00:19:12;;;;;;;48.67;25.33;;;-3.20;99.90;;;;;;5075961;28;21000;-59
2022/12/13 00:21:42;;;;;;;37.53;20.40;;;-3.30;99.90;;;;;;5075620;28;20469;-60
2022/12/13 00:24:10;;;;;;;47.30;23.17;;;-3.00;99.90;;;;;;5077503;28;20519;-60
2022/12/13 00:26:38;;;;;;;44.13;23.27;;;-2.80;99.90;;;;;;5075580;28;20960;-60
2022/12/13 00:29:07;;;;;;;50.23;25.93;;;-2.60;99.90;;;;;;5075844;28;20527;-60
2022/12/13 00:31:36;;;;;;;54.20;27.47;;;-2.70;99.90;;;;;;5075096;28;20481;-60
2022/12/13 00:34:24;;;;;;;45.87;24.87;;;-3.00;99.90;;;;;;5075284;28;20481;-59
2022/12/13 00:36:57;;;;;;;50.30;25.50;;;-3.20;99.90;;;;;;5075500;28;20457;-60
2022/12/13 00:39:26;;;;;;;46.13;24.83;;;-3.10;99.90;;;;;;5075369;28;20457;-60
2022/12/13 00:41:54;;;;;;;51.00;26.37;;;-2.90;99.90;;;;;;5075653;28;20465;-59
2022/12/13 00:44:22;;;;;;;38.70;21.80;;;-3.10;99.90;;;;;;5075321;28;20468;-60
2022/12/13 00:46:52;;;;;;;54.13;26.63;;;-3.10;99.90;;;;;;5075088;28;20857;-60
2022/12/13 00:49:20;;;;;;;46.03;23.73;;;-3.00;99.90;;;;;;5075503;28;21022;-60
2022/12/13 00:51:48;;;;;;;41.63;22.93;;;-3.20;99.90;;;;;;5075029;28;20484;-60
2022/12/13 00:54:18;;;;;;;45.43;23.83;;;-3.10;99.90;;;;;;5077055;28;20489;-59
2022/12/13 00:56:46;;;;;;;42.97;22.83;;;-3.20;99.90;;;;;;5074926;28;20470;-59
2022/12/13 00:59:15;;;;;;;42.93;22.63;;;-3.10;99.90;;;;;;5075503;28;20523;-60
2022/12/13 01:01:43;;;;;;;43.40;22.07;;;-2.90;99.90;;;;;;5074288;28;20837;-60
2022/12/13 01:04:12;;;;;;;46.87;25.10;;;-2.50;99.90;;;;;;5074872;28;20461;-60
2022/12/13 01:06:42;;;;;;;46.27;25.27;;;-2.70;99.90;;;;;;5075073;28;20874;-60
2022/12/13 01:09:15;;;;;;;45.40;24.57;;;-2.90;99.90;;;;;;5074488;28;20512;-60
2022/12/13 01:11:45;;;;;;;45.97;22.60;;;-2.90;99.90;;;;;;5073924;28;20488;-58
2022/12/13 01:14:14;;;;;;;44.97;25.07;;;-2.90;99.90;;;;;;5074751;28;20486;-60
2022/12/13 01:16:42;;;;;;;42.57;22.07;;;-2.60;99.90;;;;;;5074571;28;21010;-60
2022/12/13 01:19:10;;;;;;;47.87;25.77;;;-2.60;99.90;;;;;;5075029;28;20489;-60
2022/12/13 01:21:38;;;;;;;49.50;25.83;;;-2.40;99.90;;;;;;5074785;28;20519;-60
2022/12/13 01:24:07;;;;;;;43.73;25.40;;;-2.70;99.90;;;;;;5076166;28;20469;-60
2022/12/13 01:26:35;;;;;;;43.67;23.33;;;-2.50;99.90;;;;;;5074602;28;20473;-60
2022/12/13 01:29:04;;;;;;;51.10;25.87;;;-2.10;99.90;;;;;;5074682;28;20973;-60
2022/12/13 01:31:33;;;;;;;50.20;25.90;;;-2.10;99.90;;;;;;5074089;28;20471;-60
2022/12/13 01:34:09;;;;;;;49.33;25.50;;;-2.10;99.90;;;;;;5074313;28;20485;-60
2022/12/13 01:36:37;;;;;;;52.03;26.50;;;-2.10;99.90;;;;;;5074399;28;20951;-60
2022/12/13 01:39:05;;;;;;;44.27;24.13;;;-2.30;99.90;;;;;;5074353;28;20465;-60
2022/12/13 01:41:44;;;;;;;47.87;24.00;;;-2.00;99.90;;;;;;5073983;28;20503;-60
2022/12/13 01:44:45;;;;;;;52.77;27.80;;;-1.90;99.90;;;;;;5074058;28;20470;-60
2022/12/13 01:47:16;;;;;;;58.63;29.33;;;-1.80;99.90;;;;;;5073981;28;20477;-60
2022/12/13 01:49:44;;;;;;;55.43;27.10;;;-2.10;99.90;;;;;;5074206;28;20473;-60
2022/12/13 01:52:15;;;;;;;55.37;27.57;;;-2.30;99.90;;;;;;5073921;28;20493;-60
2022/12/13 01:54:48;;;;;;;50.13;25.97;;;-2.10;99.90;;;;;;5075088;28;20485;-60
2022/12/13 01:57:18;;;;;;;45.53;23.17;;;-2.40;99.90;;;;;;5066598;28;20472;-60
2022/12/13 01:59:47;;;;;;;57.37;28.83;;;-1.70;99.90;;;;;;5072639;28;20956;-60
2022/12/13 02:02:16;;;;;;;51.03;27.97;;;-1.70;99.90;;;;;;5073429;28;20531;-61
2022/12/13 02:04:53;;;;;;;48.90;24.23;;;-1.90;99.90;;;;;;5073921;28;21075;-61
2022/12/13 02:07:26;;;;;;;52.03;26.93;;;-1.70;99.90;;;;;;5073596;28;20820;-60
2022/12/13 02:09:58;;;;;;;44.20;22.67;;;-2.00;99.90;;;;;;5074201;28;20531;-61
2022/12/13 02:12:28;;;;;;;53.57;27.40;;;-2.00;99.90;;;;;;5073818;28;20822;-60
2022/12/13 02:14:59;;;;;;;46.53;23.53;;;-2.20;99.90;;;;;;5073828;28;20477;-60
2022/12/13 02:17:39;;;;;;;57.13;28.63;;;-2.30;99.90;;;;;;5073810;28;20466;-60
2022/12/13 02:20:57;;;;;;;54.30;27.07;;;-2.40;99.90;;;;;;5073738;28;20461;-60
2022/12/13 02:23:49;;;;;;;51.60;27.03;;;-2.30;99.90;;;;;;5073354;28;20468;-61
2022/12/13 02:26:37;;;;;;;55.53;26.87;;;-2.50;99.90;;;;;;5066516;28;20481;-60
2022/12/13 02:29:29;;;;;;;53.00;27.47;;;-2.10;99.90;;;;;;5073522;28;20478;-60
2022/12/13 02:32:04;;;;;;;50.13;26.23;;;-2.40;99.90;;;;;;5072630;28;20501;-61
2022/12/13 02:34:39;;;;;;;51.50;27.90;;;-2.30;99.90;;;;;;5072813;28;20493;-60
2022/12/13 02:37:17;;;;;;;49.67;24.23;;;-2.40;99.90;;;;;;5073480;28;20972;-61
2022/12/13 02:39:51;;;;;;;47.47;25.27;;;-2.30;99.90;;;;;;5073342;28;20477;-60
2022/12/13 02:42:25;;;;;;;47.43;25.83;;;-2.30;99.90;;;;;;5072818;28;20485;-60
2022/12/13 02:45:01;;;;;;;43.63;22.83;;;-2.40;99.90;;;;;;5073371;28;20980;-61
2022/12/13 02:47:33;;;;;;;41.50;22.00;;;-2.10;99.90;;;;;;5072786;28;20452;-61
2022/12/13 02:50:06;;;;;;;43.83;23.27;;;-2.20;99.90;;;;;;5073189;28;20880;-60
2022/12/13 02:52:35;;;;;;;46.80;24.53;;;-1.90;99.90;;;;;;5072815;28;21008;-60
2022/12/13 02:55:08;;;;;;;51.80;25.90;;;-2.00;99.90;;;;;;5074343;28;20527;-61
2022/12/13 02:57:39;;;;;;;46.17;24.40;;;-2.00;99.90;;;;;;5072813;28;20465;-60
2022/12/13 03:00:13;;;;;;;51.00;27.93;;;-1.70;99.90;;;;;;5073108;28;21026;-61
2022/12/13 03:02:53;;;;;;;53.37;27.77;;;-1.80;99.90;;;;;;5072302;28;20477;-61
2022/12/13 03:08:23;;;;;;;52.93;26.63;;;-1.90;99.90;;;;;;5072967;28;20465;-61
2022/12/13 03:11:03;;;;;;;51.80;25.47;;;-2.20;99.90;;;;;;5073011;28;20876;-61
2022/12/13 03:13:38;;;;;;;53.67;25.77;;;-2.30;99.90;;;;;;5072802;28;20484;-61
2022/12/13 03:16:21;;;;;;;42.73;23.20;;;-2.30;99.90;;;;;;5073112;28;20477;-61
2022/12/13 03:18:53;;;;;;;50.80;24.30;;;-2.30;99.90;;;;;;5072793;28;20469;-60
2022/12/13 03:21:22;;;;;;;46.00;24.63;;;-2.10;99.90;;;;;;5072572;28;20476;-60
2022/12/13 03:23:50;;;;;;;39.10;21.90;;;-2.20;99.90;;;;;;5072468;28;20457;-61
2022/12/13 03:26:21;;;;;;;49.77;25.60;;;-2.20;99.90;;;;;;5072586;28;20538;-60
2022/12/13 03:28:50;;;;;;;46.80;25.30;;;-2.40;99.90;;;;;;5072420;28;20465;-61
2022/12/13 03:31:19;;;;;;;49.10;25.17;;;-2.10;99.90;;;;;;5072377;28;20473;-61
2022/12/13 03:33:47;;;;;;;51.07;26.03;;;-2.40;99.90;;;;;;5072254;28;20469;-61
2022/12/13 03:36:18;;;;;;;37.67;21.17;;;-2.40;99.90;;;;;;5075751;28;20496;-61
2022/12/13 03:38:47;;;;;;;46.87;25.43;;;-2.30;99.90;;;;;;5076716;28;20465;-60
2022/12/13 03:41:18;;;;;;;51.40;25.33;;;-2.30;99.90;;;;;;5076838;28;20469;-61
2022/12/13 03:43:46;;;;;;;42.70;21.50;;;-2.40;99.90;;;;;;5076700;28;20828;-60
2022/12/13 03:46:14;;;;;;;48.63;24.07;;;-2.20;99.90;;;;;;5076718;28;20462;-60
2022/12/13 03:48:42;;;;;;;50.37;25.77;;;-2.10;99.90;;;;;;5076284;28;20474;-60
2022/12/13 03:51:10;;;;;;;51.07;27.17;;;-2.20;99.90;;;;;;5076072;28;20523;-60
2022/12/13 03:53:40;;;;;;;48.43;25.13;;;-2.50;99.90;;;;;;5076881;28;20489;-61
2022/12/13 03:56:08;;;;;;;44.43;22.17;;;-2.40;99.90;;;;;;5075873;28;20481;-61
2022/12/13 03:58:36;;;;;;;43.30;22.53;;;-2.30;99.90;;;;;;5076045;28;20818;-60
2022/12/13 04:01:11;;;;;;;52.40;27.17;;;-2.10;99.90;;;;;;5075954;28;20481;-61
2022/12/13 04:03:43;;;;;;;52.90;27.03;;;-2.10;99.90;;;;;;5076004;28;20671;-60
2022/12/13 04:06:15;;;;;;;51.30;26.00;;;-2.40;99.90;;;;;;5075981;28;20556;-60
2022/12/13 04:08:53;;;;;;;43.40;20.93;;;-2.50;99.90;;;;;;5075990;28;20833;-60
2022/12/13 04:14:12;;;;;;;47.33;25.03;;;-2.40;99.90;;;;;;5076499;28;20472;-60
2022/12/13 04:16:51;;;;;;;46.83;24.63;;;-2.60;99.90;;;;;;5074553;28;20469;-61
2022/12/13 04:19:21;;;;;;;44.93;23.93;;;-2.60;99.90;;;;;;5075907;28;20475;-60
2022/12/13 04:21:53;;;;;;;41.63;23.47;;;-2.70;99.90;;;;;;5075934;28;20825;-61
2022/12/13 04:24:25;;;;;;;49.20;24.13;;;-2.60;99.90;;;;;;5077253;28;20485;-60
2022/12/13 04:27:00;;;;;;;49.07;24.37;;;-2.70;99.90;;;;;;5074103;28;20944;-60
2022/12/13 04:29:30;;;;;;;42.03;23.00;;;-2.70;99.90;;;;;;5075230;28;20469;-60
2022/12/13 04:32:02;;;;;;;55.38;31.70;;;-2.70;99.90;;;;;;5074118;28;20446;-61
2022/12/13 04:34:30;;;;;;;49.93;27.33;;;-2.60;99.90;;;;;;5075449;28;20230;-60
2022/12/13 04:37:04;;;;;;;49.87;26.47;;;-2.70;99.90;;;;;;5075708;28;20469;-60
2022/12/13 04:39:34;;;;;;;47.97;25.30;;;-2.70;99.90;;;;;;5075270;28;20454;-61
2022/12/13 04:42:02;;;;;;;48.83;25.97;;;-2.70;99.90;;;;;;5075350;28;20465;-60
2022/12/13 04:44:31;;;;;;;43.93;24.40;;;-2.80;99.90;;;;;;5075513;28;20467;-61
2022/12/13 04:47:04;;;;;;;38.53;20.93;;;-2.80;99.90;;;;;;5076160;28;20802;-61
2022/12/13 04:49:33;;;;;;;49.83;25.40;;;-2.70;99.90;;;;;;5074860;28;20469;-61
2022/12/13 04:52:02;;;;;;;49.13;24.50;;;-2.50;99.90;;;;;;5074953;28;20493;-61
2022/12/13 04:54:31;;;;;;;43.73;24.23;;;-2.60;99.90;;;;;;5074995;28;20465;-61
2022/12/13 04:57:07;;;;;;;47.27;24.40;;;-2.60;99.90;;;;;;5075196;28;20542;-61
2022/12/13 04:59:35;;;;;;;41.60;20.63;;;-2.70;99.90;;;;;;5074978;28;20860;-60
2022/12/13 05:02:04;;;;;;;40.27;21.97;;;-2.60;99.90;;;;;;5074458;28;20476;-59
2022/12/13 05:04:33;;;;;;;47.07;24.77;;;-2.60;99.90;;;;;;5074943;28;20798;-61
2022/12/13 05:07:01;;;;;;;47.77;24.50;;;-2.60;99.90;;;;;;5075211;28;20477;-60
2022/12/13 05:09:29;;;;;;;37.37;20.43;;;-2.80;99.90;;;;;;5074737;28;20453;-60
2022/12/13 05:11:58;;;;;;;39.60;20.70;;;-2.50;99.90;;;;;;5075036;28;20473;-60
2022/12/13 05:14:30;;;;;;;48.40;26.03;;;-2.40;99.90;;;;;;5074790;28;20499;-61
2022/12/13 05:16:58;;;;;;;48.10;24.93;;;-2.50;99.90;;;;;;5074757;28;20996;-61
2022/12/13 05:19:27;;;;;;;43.63;22.47;;;-2.70;99.90;;;;;;5074686;28;20507;-61
2022/12/13 05:21:58;;;;;;;42.77;24.53;;;-2.70;99.90;;;;;;5074997;28;20527;-61
2022/12/13 05:24:29;;;;;;;48.43;25.10;;;-2.60;99.90;;;;;;5074564;28;20450;-60
2022/12/13 05:26:58;;;;;;;43.63;24.23;;;-2.80;99.90;;;;;;5074456;28;20458;-61
2022/12/13 05:29:27;;;;;;;45.37;24.03;;;-2.80;99.90;;;;;;5074423;28;20793;-60
2022/12/13 05:31:56;;;;;;;44.57;22.33;;;-2.80;99.90;;;;;;5074370;28;20879;-61
2022/12/13 05:34:24;;;;;;;47.10;24.00;;;-2.80;99.90;;;;;;5074128;28;20460;-60
2022/12/13 05:36:53;;;;;;;44.67;21.27;;;-2.90;99.90;;;;;;5074451;28;20485;-61
2022/12/13 05:39:21;;;;;;;45.47;23.90;;;-2.70;99.90;;;;;;5074444;28;21005;-60
2022/12/13 05:41:59;;;;;;;47.87;25.03;;;-2.80;99.90;;;;;;5074350;28;20460;-61
2022/12/13 05:44:30;;;;;;;46.50;25.13;;;-2.80;99.90;;;;;;5073897;28;20466;-60
2022/12/13 05:47:00;;;;;;;46.23;24.07;;;-2.80;99.90;;;;;;5073540;28;20461;-61
2022/12/13 05:49:30;;;;;;;44.97;23.07;;;-2.90;99.90;;;;;;5074212;28;20465;-60
2022/12/13 05:51:59;;;;;;;43.93;23.27;;;-2.90;99.90;;;;;;5074187;28;20477;-60
2022/12/13 05:54:27;;;;;;;44.57;23.97;;;-2.90;99.90;;;;;;5074122;28;20465;-60
2022/12/13 05:56:55;;;;;;;40.37;22.70;;;-2.90;99.90;;;;;;5073674;28;20532;-61
2022/12/13 05:59:23;;;;;;;43.50;21.23;;;-2.90;99.90;;;;;;5072560;28;20454;-61
2022/12/13 06:01:51;;;;;;;44.03;23.10;;;-2.90;99.90;;;;;;5074458;28;21004;-60
2022/12/13 06:04:21;;;;;;;43.83;22.07;;;-2.90;99.90;;;;;;5073944;28;20821;-60
2022/12/13 06:06:50;;;;;;;39.93;20.57;;;-2.80;99.90;;;;;;5073442;28;20473;-61
2022/12/13 06:09:19;;;;;;;49.90;24.03;;;-2.70;99.90;;;;;;5089180;28;20509;-60
2022/12/13 06:11:48;;;;;;;46.50;24.70;;;-2.80;99.90;;;;;;5094029;28;20878;-60
2022/12/13 06:14:16;;;;;;;44.50;24.77;;;-2.90;99.90;;;;;;5094051;28;20472;-60
2022/12/13 06:16:51;;;;;;;43.50;23.23;;;-2.90;99.90;;;;;;5075298;28;20474;-60
2022/12/13 06:19:21;;;;;;;41.77;22.37;;;-2.90;99.90;;;;;;5073284;28;20465;-60
2022/12/13 06:21:49;;;;;;;49.37;23.80;;;-2.80;99.90;;;;;;5089687;28;20526;-61
2022/12/13 06:24:19;;;;;;;51.60;26.57;;;-2.40;99.90;;;;;;5093769;28;20469;-61
2022/12/13 06:26:49;;;;;;;42.10;22.90;;;-2.60;99.90;;;;;;5079145;28;20812;-60
2022/12/13 06:29:18;;;;;;;49.63;26.50;;;-2.50;99.90;;;;;;5072906;28;20457;-61
2022/12/13 06:31:54;;;;;;;52.70;27.43;;;-2.60;99.90;;;;;;5072173;28;20556;-60
2022/12/13 06:34:33;;;;;;;47.40;26.23;;;-2.70;99.90;;;;;;5071074;28;20552;-60
2022/12/13 06:37:04;;;;;;;50.70;26.73;;;-2.70;99.90;;;;;;5078828;28;20485;-60
2022/12/13 06:39:33;;;;;;;49.90;25.17;;;-2.50;99.90;;;;;;5073296;28;20559;-59
2022/12/13 06:42:02;;;;;;;46.63;24.50;;;-2.80;99.90;;;;;;5072991;28;20469;-61
2022/12/13 06:44:30;;;;;;;48.33;25.80;;;-2.90;99.90;;;;;;5073157;28;20975;-60
2022/12/13 06:46:58;;;;;;;39.57;22.47;;;-3.00;99.90;;;;;;5073009;28;20481;-61
2022/12/13 06:49:42;;;;;;;50.07;25.40;;;-2.80;99.90;;;;;;5073087;28;20484;-60
2022/12/13 06:52:13;;;;;;;48.87;26.20;;;-2.90;99.90;;;;;;5072943;28;20564;-61
2022/12/13 06:54:42;;;;;;;45.70;24.50;;;-3.00;99.90;;;;;;5072724;28;20519;-60
2022/12/13 06:57:11;;;;;;;46.53;26.23;;;-2.80;99.90;;;;;;5070818;28;20489;-60
2022/12/13 06:59:40;;;;;;;48.97;25.60;;;-2.90;99.90;;;;;;5071530;28;20461;-61
2022/12/13 07:02:08;;;;;;;39.97;22.23;;;-3.00;99.90;;;;;;5071982;28;20469;-60
2022/12/13 07:04:54;;;;;;;47.70;24.93;;;-2.70;99.90;;;;;;5072739;28;20957;-60
2022/12/13 07:07:23;;;;;;;46.07;24.37;;;-2.90;99.90;;;;;;5072802;28;20956;-60
2022/12/13 07:09:51;;;;;;;43.57;24.10;;;-3.00;99.90;;;;;;5072456;28;20824;-60
2022/12/13 07:12:20;;;;;;;45.30;23.67;;;-2.90;99.90;;;;;;5073214;28;20466;-61
2022/12/13 07:14:48;;;;;;;46.33;25.13;;;-2.90;99.90;;;;;;5072412;28;20465;-60
2022/12/13 07:17:16;;;;;;;45.33;23.17;;;-3.00;99.90;;;;;;5072718;28;20493;-60
2022/12/13 07:20:03;;;;;;;46.60;22.70;;;-3.00;99.90;;;;;;5072503;28;20461;-60
2022/12/13 07:22:31;;;;;;;43.17;23.73;;;-3.10;99.90;;;;;;5078869;28;20472;-60
2022/12/13 07:25:04;;;;;;;42.83;23.87;;;-3.10;99.90;;;;;;5073278;28;20527;-60
2022/12/13 07:27:32;;;;;;;37.60;21.77;;;-3.10;99.90;;;;;;5071034;28;20986;-60
2022/12/13 07:30:00;;;;;;;41.03;22.03;;;-3.10;99.90;;;;;;5078178;28;20476;-60
2022/12/13 07:32:28;;;;;;;41.87;22.43;;;-3.10;99.90;;;;;;5071379;28;20478;-60
2022/12/13 07:34:56;;;;;;;41.73;22.17;;;-3.10;99.90;;;;;;5072251;28;20802;-60
2022/12/13 07:37:26;;;;;;;41.13;22.27;;;-3.10;99.90;;;;;;5071879;28;20527;-59
2022/12/13 07:39:58;;;;;;;41.93;22.23;;;-3.00;99.90;;;;;;5070478;28;20556;-60
2022/12/13 07:42:32;;;;;;;40.30;21.90;;;-3.00;99.90;;;;;;5072282;28;20925;-60
2022/12/13 07:45:00;;;;;;;37.80;21.17;;;-2.90;99.90;;;;;;5072370;28;20461;-60
2022/12/13 07:47:29;;;;;;;39.57;22.67;;;-2.70;99.90;;;;;;5074605;28;20953;-60
2022/12/13 07:49:57;;;;;;;47.73;25.97;;;-2.50;99.90;;;;;;5073909;28;20984;-60
2022/12/13 07:52:26;;;;;;;50.37;27.53;;;-2.60;99.90;;;;;;5072207;28;20469;-58
2022/12/13 07:54:54;;;;;;;48.00;26.57;;;-2.80;99.90;;;;;;5072128;28;20841;-60
2022/12/13 07:57:22;;;;;;;46.13;25.40;;;-2.90;99.90;;;;;;5072341;28;20489;-60
2022/12/13 07:59:50;;;;;;;46.87;25.20;;;-2.90;99.90;;;;;;5072775;28;20457;-60
2022/12/13 08:02:18;;;;;;;43.63;25.27;;;-2.90;99.90;;;;;;5071606;28;20477;-60
2022/12/13 08:04:46;;;;;;;43.10;25.17;;;-3.00;99.90;;;;;;5071996;28;20461;-60
2022/12/13 08:07:22;;;;;;;44.73;24.03;;;-3.00;99.90;;;;;;5072294;28;20461;-60
2022/12/13 08:09:52;;;;;;;44.77;23.03;;;-3.00;99.90;;;;;;5071986;28;20473;-59
2022/12/13 08:12:20;;;;;;;39.97;22.30;;;-3.00;99.90;;;;;;5071975;28;20462;-60
2022/12/13 08:14:50;;;;;;;45.07;24.10;;;-2.70;99.90;;;;;;5077546;28;20527;-60
2022/12/13 08:17:21;;;;;;;43.53;24.77;;;-2.70;99.90;;;;;;5071811;28;20543;-61
2022/12/13 08:19:49;;;;;;;45.27;24.43;;;-2.80;99.90;;;;;;5078767;28;20468;-60
2022/12/13 08:22:19;;;;;;;44.83;23.80;;;-2.80;99.90;;;;;;5075141;28;20469;-60
2022/12/13 08:24:52;;;;;;;42.37;22.03;;;-2.80;99.90;;;;;;5078076;28;20469;-60
2022/12/13 08:27:21;;;;;;;41.13;21.43;;;-2.80;99.90;;;;;;5075625;28;20512;-61
2022/12/13 08:29:49;;;;;;;39.50;21.60;;;-2.80;99.90;;;;;;5079056;28;20812;-61
2022/12/13 08:32:17;;;;;;;41.70;21.50;;;-2.80;99.90;;;;;;5077799;28;20478;-60
2022/12/13 08:34:45;;;;;;;40.93;22.13;;;-2.90;99.90;;;;;;5074890;28;20489;-60
2022/12/13 08:37:14;;;;;;;40.93;21.47;;;-2.70;99.90;;;;;;5075278;28;20477;-60
2022/12/13 08:39:43;;;;;;;41.37;22.17;;;-2.60;99.90;;;;;;5075191;28;20473;-60
2022/12/13 08:42:15;;;;;;;39.27;22.67;;;-2.70;99.90;;;;;;5078432;28;20480;-64
2022/12/13 08:44:48;;;;;;;39.70;21.90;;;-2.50;99.90;;;;;;5075268;28;20526;-64
2022/12/13 08:47:17;;;;;;;41.27;22.67;;;-2.40;99.90;;;;;;5078063;28;20457;-60
2022/12/13 08:49:53;;;;;;;42.53;23.90;;;-2.50;99.90;;;;;;5077961;28;20471;-58
2022/12/13 08:52:22;;;;;;;41.27;22.53;;;-2.50;99.90;;;;;;5080773;28;20481;-59
2022/12/13 08:54:51;;;;;;;50.07;25.00;;;-2.50;99.90;;;;;;5078051;28;20469;-59
2022/12/13 08:57:20;;;;;;;44.87;24.17;;;-2.60;99.90;;;;;;5078560;28;20496;-58
2022/12/13 08:59:48;;;;;;;44.33;23.67;;;-2.60;99.90;;;;;;5078401;28;20519;-58
2022/12/13 09:02:17;;;;;;;45.20;24.63;;;-2.50;99.90;;;;;;5085786;28;20473;-58
2022/12/13 09:04:45;;;;;;;43.20;25.10;;;-2.60;99.90;;;;;;5078262;28;20465;-58
2022/12/13 09:07:14;;;;;;;43.23;26.43;;;-2.60;99.90;;;;;;5078454;28;20508;-59
2022/12/13 09:09:42;;;;;;;45.40;24.67;;;-2.50;99.90;;;;;;5078792;28;20569;-59
2022/12/13 09:12:10;;;;;;;52.13;27.67;;;-2.50;99.90;;;;;;5070880;28;20548;-59
2022/12/13 09:14:59;;;;;;;48.97;25.70;;;-2.30;99.90;;;;;;5079361;28;20461;-59
2022/12/13 09:17:31;;;;;;;42.13;23.00;;;-2.30;99.90;;;;;;5093953;28;20508;-58
2022/12/13 09:20:08;;;;;;;42.60;25.60;;;-1.90;99.90;;;;;;5086248;28;20985;-59
2022/12/13 09:22:56;;;;;;;49.37;26.67;;;-2.10;99.90;;;;;;5088247;28;20476;-59
2022/12/13 09:25:32;;;;;;;43.47;25.27;;;-2.10;99.90;;;;;;5080444;28;20472;-58
2022/12/13 09:28:06;;;;;;;46.23;26.87;;;-1.90;99.90;;;;;;5087790;28;20572;-59
2022/12/13 09:30:37;;;;;;;46.33;25.37;;;-2.10;99.90;;;;;;5085642;28;20484;-60
2022/12/13 09:33:05;;;;;;;42.73;24.40;;;-2.00;99.90;;;;;;5083231;28;20477;-59
2022/12/13 09:35:53;;;;;;;41.57;24.67;;;-2.10;99.90;;;;;;5076819;28;20483;-59
2022/12/13 09:38:21;;;;;;;43.70;26.00;;;-2.00;99.90;;;;;;5086065;28;20570;-59
2022/12/13 09:40:53;;;;;;;44.10;24.63;;;-2.10;99.90;;;;;;5085438;28;20469;-59
2022/12/13 09:43:30;;;;;;;42.37;24.23;;;-1.90;99.90;;;;;;5079958;28;20453;-59
2022/12/13 09:46:22;;;;;;;46.30;24.77;;;-1.90;99.90;;;;;;5077757;28;20548;-58
2022/12/13 09:48:53;;;;;;;51.20;27.30;;;-1.80;99.90;;;;;;5086594;28;20468;-59
2022/12/13 09:51:32;;;;;;;48.43;25.00;;;-1.80;99.90;;;;;;5084320;28;20456;-59
2022/12/13 09:54:18;;;;;;;47.63;26.33;;;-1.70;99.90;;;;;;5080220;28;20466;-59
2022/12/13 09:56:49;;;;;;;45.43;25.63;;;-1.70;99.90;;;;;;5076306;28;20497;-57
2022/12/13 09:59:21;;;;;;;44.03;24.80;;;-1.80;99.90;;;;;;5089003;28;20512;-59
2022/12/13 10:01:50;;;;;;;46.50;26.03;;;-1.90;99.90;;;;;;5080400;28;21002;-59
2022/12/13 10:04:19;;;;;;;43.27;24.87;;;-1.90;99.90;;;;;;5088843;28;20461;-59
2022/12/13 10:06:52;;;;;;;41.10;23.73;;;-1.80;99.90;;;;;;5079744;28;20879;-59
2022/12/13 10:09:20;;;;;;;46.23;25.07;;;-1.70;99.90;;;;;;5089544;28;20456;-59
2022/12/13 10:11:50;;;;;;;44.67;24.63;;;-1.70;99.90;;;;;;5088233;28;20549;-59
2022/12/13 10:14:25;;;;;;;45.43;24.07;;;-1.70;99.90;;;;;;5083523;28;20469;-58
2022/12/13 10:16:57;;;;;;;47.33;26.00;;;-1.80;99.90;;;;;;5079294;28;20453;-59
2022/12/13 10:19:33;;;;;;;45.77;24.67;;;-1.80;99.90;;;;;;5089324;28;20480;-59
2022/12/13 10:22:04;;;;;;;46.30;26.50;;;-1.80;99.90;;;;;;5084309;28;20960;-59
2022/12/13 10:24:49;;;;;;;52.97;28.07;;;-1.70;99.90;;;;;;5084392;28;20465;-59
2022/12/13 10:27:19;;;;;;;47.90;25.47;;;-1.70;99.90;;;;;;5080903;28;20457;-59
2022/12/13 10:30:01;;;;;;;47.07;25.77;;;-1.70;99.90;;;;;;5083279;28;20471;-58
2022/12/13 10:32:33;;;;;;;44.70;25.90;;;-1.60;99.90;;;;;;5082329;28;20477;-59
2022/12/13 10:35:20;;;;;;;46.33;25.23;;;-1.60;99.90;;;;;;5084675;28;20469;-59
2022/12/13 10:37:48;;;;;;;49.47;27.23;;;-1.60;99.90;;;;;;5079749;28;20480;-59
2022/12/13 10:40:24;;;;;;;52.63;26.97;;;-1.60;99.90;;;;;;5083716;28;20461;-58
2022/12/13 10:43:12;;;;;;;50.97;26.73;;;-1.40;99.90;;;;;;5092260;28;20468;-59
2022/12/13 10:45:41;;;;;;;52.80;27.87;;;-1.30;99.90;;;;;;5082659;28;21005;-59
2022/12/13 10:48:20;;;;;;;49.60;26.73;;;-1.50;99.90;;;;;;5088656;28;20488;-59
2022/12/13 10:51:00;;;;;;;54.30;27.83;;;-1.40;99.90;;;;;;5079019;28;20480;-59
2022/12/13 10:53:31;;;;;;;53.87;28.13;;;-1.30;99.90;;;;;;5089939;28;20518;-58
2022/12/13 10:56:00;;;;;;;51.10;28.03;;;-1.40;99.90;;;;;;5084814;28;20468;-59
2022/12/13 10:58:38;;;;;;;53.43;29.03;;;-1.40;99.90;;;;;;5082223;28;20470;-59
2022/12/13 11:01:22;;;;;;;55.03;28.43;;;-1.30;99.90;;;;;;5076666;28;20991;-59
2022/12/13 11:03:59;;;;;;;54.13;28.47;;;-1.30;99.90;;;;;;5079734;28;20464;-58
2022/12/13 11:06:46;;;;;;;56.80;31.10;;;-1.20;99.90;;;;;;5086657;28;20460;-59
2022/12/13 11:09:15;;;;;;;55.80;30.10;;;-1.20;99.90;;;;;;5076043;28;20476;-59
2022/12/13 11:11:51;;;;;;;61.00;31.27;;;-1.20;99.90;;;;;;5083730;28;20465;-59
2022/12/13 11:14:29;;;;;;;61.80;29.90;;;-1.20;99.90;;;;;;5082884;28;20468;-59
2022/12/13 11:17:06;;;;;;;61.53;29.57;;;-1.20;99.90;;;;;;5085331;28;20465;-59
2022/12/13 11:19:40;;;;;;;59.30;31.60;;;-1.30;99.90;;;;;;5082688;28;20489;-59
2022/12/13 11:22:10;;;;;;;58.37;32.40;;;-1.30;99.90;;;;;;5088638;28;21043;-59
2022/12/13 11:24:41;;;;;;;62.13;30.10;;;-1.20;99.90;;;;;;5089929;28;20476;-59
2022/12/13 11:27:28;;;;;;;56.23;29.13;;;-1.30;99.90;;;;;;5092019;28;20473;-59
2022/12/13 11:30:11;;;;;;;61.10;30.70;;;-1.20;99.90;;;;;;5077542;28;20868;-58
2022/12/13 11:32:57;;;;;;;71.17;39.30;;;-1.20;99.90;;;;;;5083015;28;20465;-59
2022/12/13 11:35:32;;;;;;;65.23;33.40;;;-1.10;99.90;;;;;;5081693;28;20469;-59
2022/12/13 11:38:10;;;;;;;67.57;32.57;;;-1.10;99.90;;;;;;5083783;28;20472;-59
2022/12/13 11:40:42;;;;;;;63.77;33.90;;;-1.00;99.90;;;;;;5081683;28;20964;-59
2022/12/13 11:43:23;;;;;;;62.27;32.07;;;-1.00;99.90;;;;;;5088791;28;20561;-59
2022/12/13 11:45:55;;;;;;;67.50;33.83;;;-1.00;99.90;;;;;;5077015;28;20488;-59
2022/12/13 11:48:34;;;;;;;76.17;37.93;;;-1.00;99.90;;;;;;5074221;28;20556;-59
2022/12/13 11:51:07;;;;;;;70.47;34.33;;;-1.00;99.90;;;;;;5073061;28;20469;-59
2022/12/13 11:53:45;;;;;;;63.17;33.17;;;-1.00;99.90;;;;;;5073726;28;20493;-59
2022/12/13 11:56:19;;;;;;;67.80;33.67;;;-1.00;99.90;;;;;;5072530;28;21173;-59
2022/12/13 11:58:53;;;;;;;72.30;33.00;;;-1.00;99.90;;;;;;5075186;28;20543;-58
2022/12/13 12:01:39;;;;;;;68.87;33.77;;;-1.00;99.90;;;;;;5076012;28;20683;-59
2022/12/13 12:04:17;;;;;;;71.70;33.60;;;-0.90;99.90;;;;;;5079162;28;20480;-59
2022/12/13 12:06:53;;;;;;;66.07;32.83;;;-1.00;99.90;;;;;;5074676;28;20460;-60
2022/12/13 12:09:25;;;;;;;68.63;34.03;;;-1.00;99.90;;;;;;5075173;28;20567;-58
2022/12/13 12:11:58;;;;;;;70.13;33.67;;;-1.00;99.90;;;;;;5079199;28;20477;-59
2022/12/13 12:14:37;;;;;;;73.87;34.27;;;-1.00;99.90;;;;;;5078144;28;20508;-59
2022/12/13 12:17:06;;;;;;;71.47;34.27;;;-0.80;99.90;;;;;;5078121;28;20479;-58
2022/12/13 12:19:37;;;;;;;76.37;35.23;;;-0.80;99.90;;;;;;5075495;28;20491;-60
2022/12/13 12:22:20;;;;;;;68.93;34.07;;;-0.80;99.90;;;;;;5073474;28;20882;-59
2022/12/13 12:25:07;;;;;;;78.23;36.00;;;-0.90;99.90;;;;;;5079631;28;20539;-59
2022/12/13 12:27:45;;;;;;;83.27;36.63;;;-0.80;99.90;;;;;;5080182;28;20480;-58
2022/12/13 12:30:18;;;;;;;79.77;35.67;;;-0.80;99.90;;;;;;5074328;28;20824;-59
2022/12/13 12:32:55;;;;;;;84.40;38.00;;;-0.70;99.90;;;;;;5076627;28;20598;-59
2022/12/13 12:35:51;;;;;;;80.57;38.17;;;-0.80;99.90;;;;;;5075175;28;20477;-58
2022/12/13 12:39:03;;;;;;;80.57;38.63;;;-0.80;99.90;;;;;;5077254;28;20469;-59
2022/12/13 12:41:44;;;;;;;79.90;36.87;;;-0.70;99.90;;;;;;5079024;28;20457;-58
2022/12/13 12:44:24;;;;;;;78.23;37.03;;;-0.70;99.90;;;;;;5079554;28;20789;-60
2022/12/13 12:47:15;;;;;;;80.53;37.03;;;-0.70;99.90;;;;;;5078580;28;20812;-59
2022/12/13 12:50:15;;;;;;;84.13;39.63;;;-0.50;99.90;;;;;;5075488;28;20574;-59
2022/12/13 12:52:59;;;;;;;82.93;38.77;;;-0.50;99.90;;;;;;5079509;28;20484;-60
2022/12/13 12:55:39;;;;;;;76.70;35.60;;;-0.30;99.90;;;;;;5083012;28;20537;-58
2022/12/13 12:58:16;;;;;;;71.80;34.53;;;-0.30;99.90;;;;;;5084238;28;20472;-59
2022/12/13 13:00:57;;;;;;;75.83;37.17;;;-0.30;99.90;;;;;;5082580;28;20520;-59
2022/12/13 13:03:28;;;;;;;83.37;37.77;;;-0.20;99.90;;;;;;5081898;28;20472;-58